Ardara, PA

8:13 AM EST on February 01, 2015 (GMT -0500)
WWMA Treatment Plant | Change Station
CLOSE
Current Station
Personal Weather Station
Location: Irwin, PA
Elevation: 879 ft
Nearby Weather Stations
Active Advisory: Winter Weather Advisory

Elev 879 ft 40.34 °N, 79.72 °W | Updated 3 minutes ago

Snow
Snow
26.0 °F
Feels Like 26 °F
N
0.0
Wind Variable Wind from East
Gusts 3.0 mph

Today
High -- | Low -- °F
--% Chance of Precip.
Yesterday
High -- | Low -- °F
Precip. -- in
7:28 AM 5:37 PM
Waxing Gibbous, 95% visible
Pressure 30.16 in
Visibility 0.8 miles
Clouds Overcast 2600 ft
Windchill 26 °F
Dew Point 26 °F
Humidity 100%
Rainfall 0.00 in
Snow Depth Not available.
UV 0 out of 12
Pollen .10 out of 12
Air Quality Not available.
Flu Activity Not available.
SPECI KAGC 011307Z 17007KT 3/4SM R28/P6000FT -SN BR OVC026 M04/M06 A3016 RMK AO2 P0000 T10391056

More Conditions Fewer Conditions

Pressure 30.16 in
Visibility 0.8 miles
Clouds Overcast 2600 ft
Windchill 26 °F
Dew Point 26 °F
Humidity 100%
Rainfall 0.00 in
Snow Depth Not available.
UV 0 out of 12
Pollen .10 out of 12
Air Quality Not available.
Flu Activity Not available.
SPECI KAGC 011307Z 17007KT 3/4SM R28/P6000FT -SN BR OVC026 M04/M06 A3016 RMK AO2 P0000 T10391056

More Conditions Fewer Conditions

10-Day Weather Forecast

Almanac

Astronomy

Feb. 01, 2015 Rise Set
Actual Time
Civil Twilight
Nautical Twilight
Astronomical Twilight
Moon
Length of Visible Light
Length of Day
Tomorrow will be .
, % of the Moon is Illuminated

Today's Extremes

State Highs State Lows

Community

WunderPhotos

Upload Photos

1,792,359 photos uploaded!

WunderBlogs® & News

Nearby

Air Quality

  Air Quality AQ Index Pollutant
Not available.

Snow Depth

Station Depth Elevation

Earthquake Activity

City Distance Mag. Time & Date
Minimum magnitude displayed is 2.5.

Coastal Water Temperatures

Place Temperature

Nearby Weather Stations